Time;durP1;ratioP1;P1;durP2;ratioP2;P2;SDS_P1;SDS_P2;PMS_P1;PMS_P2;Temp;Humidity;BMP_temperature;BMP_pressure;BME280_temperature;BME280_humidity;BME280_pressure;Samples;Min_cycle;Max_cycle;Signal;HPM_P1;HPM_P2
2021/07/23 00:01:55;;;;;;;3.63;1.80;;;21.30;57.70;;;;;;4993374;28;20063;-79
2021/07/23 00:04:21;;;;;;;6.03;2.40;;;21.20;58.00;;;;;;4993499;28;20176;-79
2021/07/23 00:06:49;;;;;;;3.85;2.03;;;21.30;58.10;;;;;;4979475;28;20041;-79
2021/07/23 00:09:15;;;;;;;2.83;1.98;;;21.30;58.10;;;;;;4997544;28;20042;-79
2021/07/23 00:11:41;;;;;;;4.53;2.17;;;21.20;58.30;;;;;;4997314;28;20048;-78
2021/07/23 00:14:07;;;;;;;8.88;2.20;;;21.20;58.40;;;;;;4997256;28;20034;-78
2021/07/23 00:16:33;;;;;;;3.15;2.20;;;21.20;58.50;;;;;;4997343;28;20049;-78
2021/07/23 00:18:59;;;;;;;2.90;2.05;;;21.20;58.60;;;;;;4996952;28;20042;-78
2021/07/23 00:21:25;;;;;;;2.35;1.63;;;21.20;58.70;;;;;;4997013;28;20061;-78
2021/07/23 00:23:51;;;;;;;5.13;1.60;;;21.10;58.90;;;;;;4997027;28;20096;-78
2021/07/23 00:26:21;;;;;;;3.40;1.80;;;21.00;59.10;;;;;;4996955;28;20042;-78
2021/07/23 00:28:47;;;;;;;2.40;1.60;;;21.10;59.30;;;;;;4996763;28;20040;-78
2021/07/23 00:31:13;;;;;;;5.28;1.88;;;21.00;59.40;;;;;;5012403;28;20042;-78
2021/07/23 00:33:41;;;;;;;3.17;1.50;;;21.10;59.30;;;;;;4995974;28;20042;-78
2021/07/23 00:36:07;;;;;;;6.20;1.65;;;21.10;59.30;;;;;;4995765;28;20089;-78
2021/07/23 00:38:33;;;;;;;3.78;1.55;;;21.20;59.40;;;;;;4995580;28;20038;-78
2021/07/23 00:40:59;;;;;;;3.92;1.80;;;21.10;59.30;;;;;;4996578;28;20519;-77
2021/07/23 00:43:25;;;;;;;3.60;1.75;;;21.10;58.80;;;;;;4995259;28;20042;-78
2021/07/23 00:45:52;;;;;;;3.00;1.40;;;21.10;59.40;;;;;;4995431;28;20040;-78
2021/07/23 00:48:19;;;;;;;5.00;1.50;;;21.10;59.20;;;;;;4995563;28;20068;-78
2021/07/23 00:50:46;;;;;;;4.63;1.60;;;21.10;59.20;;;;;;4996474;28;20612;-78
2021/07/23 00:53:14;;;;;;;2.60;1.10;;;21.10;59.20;;;;;;4995468;28;20108;-79
2021/07/23 00:55:47;;;;;;;4.18;1.27;;;21.10;59.30;;;;;;4996455;28;20038;-78
2021/07/23 00:58:13;;;;;;;2.65;1.40;;;21.10;59.30;;;;;;4996701;28;20449;-77
2021/07/23 01:00:40;;;;;;;4.00;1.45;;;21.10;59.20;;;;;;4996581;28;20490;-77
2021/07/23 01:03:07;;;;;;;4.53;1.27;;;21.20;59.30;;;;;;4995144;28;20461;-77
2021/07/23 01:05:35;;;;;;;3.97;1.30;;;21.20;59.00;;;;;;4995033;28;20039;-77
2021/07/23 01:08:04;;;;;;;2.22;1.60;;;21.20;59.00;;;;;;4996208;28;20045;-77
2021/07/23 01:10:38;;;;;;;4.05;1.20;;;21.20;58.70;;;;;;4994856;28;20121;-79
2021/07/23 01:13:22;;;;;;;2.50;1.10;;;21.00;59.10;;;;;;4995167;28;20043;-78
2021/07/23 01:15:50;;;;;;;3.35;1.10;;;21.00;59.20;;;;;;4994918;28;20030;-78
2021/07/23 01:18:16;;;;;;;1.58;1.13;;;21.10;59.20;;;;;;4993890;28;20042;-78
2021/07/23 01:20:49;;;;;;;2.20;0.90;;;21.10;59.20;;;;;;4996057;28;20027;-78
2021/07/23 01:23:43;;;;;;;2.92;1.05;;;21.10;58.80;;;;;;4994810;28;20450;-77
2021/07/23 01:26:27;;;;;;;3.97;1.30;;;21.10;59.10;;;;;;4996253;28;20049;-77
2021/07/23 01:28:54;;;;;;;2.58;0.95;;;21.10;59.10;;;;;;4994513;28;20089;-77
2021/07/23 01:31:20;;;;;;;3.00;0.95;;;21.10;59.10;;;;;;4995726;28;20529;-77
2021/07/23 01:33:46;;;;;;;4.22;1.20;;;21.10;59.10;;;;;;4994518;28;20486;-78
2021/07/23 01:36:12;;;;;;;3.47;1.08;;;21.10;59.20;;;;;;4994535;28;20085;-77
2021/07/23 01:38:52;;;;;;;5.13;1.05;;;21.10;59.30;;;;;;4995557;28;20038;-78
2021/07/23 01:41:20;;;;;;;4.10;1.42;;;21.10;59.40;;;;;;4994698;28;20042;-77
2021/07/23 01:43:47;;;;;;;6.72;1.15;;;21.10;59.30;;;;;;4994496;28;20388;-78
2021/07/23 01:46:13;;;;;;;2.50;1.10;;;21.10;59.50;;;;;;4994511;28;20124;-77
2021/07/23 01:48:42;;;;;;;2.78;1.17;;;21.00;59.60;;;;;;4995720;28;20442;-77
2021/07/23 01:51:24;;;;;;;3.33;1.10;;;21.00;59.80;;;;;;4995566;28;20044;-77
2021/07/23 01:53:51;;;;;;;2.25;1.13;;;21.00;60.00;;;;;;4994483;28;20089;-77
2021/07/23 01:56:17;;;;;;;3.70;1.10;;;21.00;60.00;;;;;;4995566;28;20406;-77
2021/07/23 01:58:44;;;;;;;3.63;1.40;;;21.10;60.00;;;;;;4995391;28;20035;-77
2021/07/23 02:01:10;;;;;;;2.30;1.02;;;21.00;60.00;;;;;;4993945;28;20141;-78
2021/07/23 02:03:46;;;;;;;;;;;21.00;60.20;;;;;;4994608;28;20449;-77
2021/07/23 02:06:15;;;;;;;1.33;1.23;;;21.00;60.40;;;;;;4994093;28;19920;-77
2021/07/23 02:08:42;;;;;;;4.35;1.70;;;21.00;60.40;;;;;;4993895;28;20076;-79
2021/07/23 02:11:08;;;;;;;4.20;1.30;;;21.00;60.50;;;;;;4994035;28;20034;-79
2021/07/23 02:13:35;;;;;;;4.30;1.30;;;20.90;60.60;;;;;;4994088;28;20040;-79
2021/07/23 02:16:08;;;;;;;2.28;1.30;;;20.90;60.70;;;;;;4994179;28;20046;-76
2021/07/23 02:18:34;;;;;;;2.45;1.25;;;20.90;60.90;;;;;;4994643;28;20129;-76
2021/07/23 02:21:06;;;;;;;2.38;1.10;;;20.90;61.00;;;;;;4993501;28;20046;-76
2021/07/23 02:23:34;;;;;;;3.72;1.35;;;20.90;61.10;;;;;;4994658;28;20176;-76
2021/07/23 02:26:00;;;;;;;4.75;1.80;;;20.80;61.20;;;;;;4993490;28;20506;-77
2021/07/23 02:28:26;;;;;;;2.25;1.10;;;20.90;61.50;;;;;;4993222;28;20132;-77
2021/07/23 02:30:55;;;;;;;4.50;1.33;;;21.00;61.40;;;;;;4993391;28;20034;-77
2021/07/23 02:33:28;;;;;;;4.00;1.30;;;21.10;61.00;;;;;;4993679;28;20549;-77
2021/07/23 02:36:14;;;;;;;3.55;1.17;;;21.20;61.00;;;;;;4993333;28;20120;-78
2021/07/23 02:38:41;;;;;;;4.45;1.75;;;21.40;61.10;;;;;;4993562;28;20050;-79
2021/07/23 02:41:11;;;;;;;5.82;1.52;;;21.50;60.70;;;;;;4993458;28;20073;-79
2021/07/23 02:43:36;;;;;;;4.13;1.30;;;21.60;60.50;;;;;;4994486;28;20034;-78
2021/07/23 02:46:04;;;;;;;3.60;1.10;;;21.70;60.20;;;;;;4993165;28;20510;-79
2021/07/23 02:48:31;;;;;;;2.13;1.20;;;21.80;60.10;;;;;;4993206;28;20038;-79
2021/07/23 02:50:58;;;;;;;5.97;1.65;;;21.90;59.90;;;;;;4992905;28;20032;-78
2021/07/23 02:53:25;;;;;;;1.48;1.00;;;22.00;59.50;;;;;;4992918;28;20061;-77
2021/07/23 02:55:51;;;;;;;3.75;1.65;;;22.10;59.30;;;;;;4994242;28;20053;-78
2021/07/23 02:58:18;;;;;;;2.60;1.05;;;22.20;59.30;;;;;;4992864;28;20046;-78
2021/07/23 03:00:45;;;;;;;5.43;1.67;;;22.20;59.20;;;;;;4993802;28;20121;-79
2021/07/23 03:03:12;;;;;;;1.98;1.15;;;22.30;59.20;;;;;;4992855;28;20046;-78
2021/07/23 03:05:39;;;;;;;4.20;1.42;;;22.30;59.20;;;;;;4992887;28;20038;-77
2021/07/23 03:08:15;;;;;;;;;;;22.30;59.10;;;;;;4993162;28;20384;-76
2021/07/23 03:10:53;;;;;;;4.38;1.38;;;22.30;59.20;;;;;;4993699;28;20337;-76
2021/07/23 03:13:21;;;;;;;1.95;1.02;;;22.30;59.20;;;;;;5009306;28;20457;-77
2021/07/23 03:15:48;;;;;;;2.05;0.90;;;22.30;59.40;;;;;;4993641;28;20034;-77
2021/07/23 03:18:17;;;;;;;3.58;1.15;;;22.20;58.90;;;;;;4993954;28;20053;-77
2021/07/23 03:20:44;;;;;;;1.67;1.20;;;22.10;59.20;;;;;;4992404;28;20136;-76
2021/07/23 03:23:11;;;;;;;4.20;1.83;;;22.20;59.30;;;;;;4992512;28;20030;-76
2021/07/23 03:25:53;;;;;;;4.43;1.20;;;22.10;58.90;;;;;;4992373;28;20524;-76
2021/07/23 03:28:32;;;;;;;4.40;0.98;;;22.10;58.90;;;;;;4992247;28;20076;-76
2021/07/23 03:31:14;;;;;;;2.88;1.02;;;22.10;59.20;;;;;;4992253;28;20034;-75
2021/07/23 03:33:44;;;;;;;1.85;1.27;;;22.10;59.10;;;;;;4992254;28;20038;-76
2021/07/23 03:36:12;;;;;;;2.15;1.20;;;22.10;58.90;;;;;;4992251;28;20121;-76
2021/07/23 03:38:39;;;;;;;5.07;1.20;;;22.10;59.00;;;;;;4993212;28;20185;-78
2021/07/23 03:41:05;;;;;;;4.25;1.20;;;22.10;59.00;;;;;;4991394;28;20037;-78
2021/07/23 03:43:32;;;;;;;5.20;1.45;;;22.20;58.90;;;;;;4992223;28;20034;-82
2021/07/23 03:46:07;;;;;;;5.93;1.48;;;22.20;59.10;;;;;;4992266;28;20038;-79
2021/07/23 03:48:40;;;;;;;3.28;1.20;;;22.30;59.00;;;;;;4992140;28;20127;-79
2021/07/23 03:51:10;;;;;;;5.38;1.20;;;22.40;58.80;;;;;;4991992;28;20038;-78
2021/07/23 03:53:38;;;;;;;8.60;1.45;;;22.60;58.30;;;;;;4991784;28;20387;-78
2021/07/23 03:56:18;;;;;;;4.10;1.48;;;22.80;58.40;;;;;;4992191;28;20038;-76
2021/07/23 03:58:45;;;;;;;7.13;1.50;;;23.00;58.20;;;;;;4991930;28;20050;-78
2021/07/23 04:01:17;;;;;;;2.63;1.35;;;23.10;58.40;;;;;;4991888;28;20518;-77
2021/07/23 04:03:49;;;;;;;6.22;1.35;;;23.30;57.80;;;;;;4993037;28;20137;-78
2021/07/23 04:06:17;;;;;;;7.10;1.55;;;23.40;57.60;;;;;;4992056;28;20062;-77
2021/07/23 04:08:44;;;;;;;4.05;1.30;;;23.60;57.00;;;;;;4991915;28;20133;-77
2021/07/23 04:11:17;;;;;;;3.25;0.90;;;23.70;56.60;;;;;;4992093;28;20042;-79
2021/07/23 04:13:47;;;;;;;5.82;1.48;;;23.80;56.50;;;;;;4991919;28;20088;-76
2021/07/23 04:16:13;;;;;;;4.25;1.52;;;23.90;56.40;;;;;;4992912;28;20133;-76
2021/07/23 04:18:41;;;;;;;2.70;0.90;;;24.00;56.20;;;;;;4992702;28;20046;-76
2021/07/23 04:21:26;;;;;;;2.05;0.93;;;24.10;55.80;;;;;;4993411;28;20096;-75
2021/07/23 04:23:52;;;;;;;3.83;1.30;;;24.20;56.00;;;;;;4991810;28;20498;-75
2021/07/23 04:26:21;;;;;;;3.78;1.10;;;24.30;56.20;;;;;;4993026;28;20383;-75
2021/07/23 04:28:48;;;;;;;5.07;1.27;;;24.40;55.70;;;;;;5007981;28;20391;-76
2021/07/23 04:31:15;;;;;;;2.30;1.13;;;24.50;55.40;;;;;;4991423;28;20081;-77
2021/07/23 04:33:52;;;;;;;4.20;1.38;;;24.50;55.40;;;;;;4975372;28;20047;-78
2021/07/23 04:36:34;;;;;;;3.05;1.70;;;24.60;55.50;;;;;;4973768;28;20051;-81
2021/07/23 04:39:09;;;;;;;6.65;1.42;;;24.70;54.90;;;;;;4972313;28;20063;-76
2021/07/23 04:41:37;;;;;;;5.32;1.35;;;24.70;55.30;;;;;;4971899;28;20371;-79
2021/07/23 04:44:03;;;;;;;6.53;1.20;;;24.70;55.30;;;;;;4973505;28;20117;-76
2021/07/23 04:46:32;;;;;;;6.15;1.25;;;24.80;55.30;;;;;;4967608;28;20520;-77
2021/07/23 04:48:58;;;;;;;5.18;1.55;;;24.90;55.30;;;;;;4992872;28;20042;-76
2021/07/23 04:51:31;;;;;;;1.67;1.00;;;25.00;55.80;;;;;;4992916;28;20476;-77
2021/07/23 04:54:17;;;;;;;3.90;1.02;;;25.00;55.30;;;;;;4985664;28;20077;-77
2021/07/23 04:56:52;;;;;;;4.45;1.30;;;25.10;54.80;;;;;;4976899;28;20514;-77
2021/07/23 04:59:19;;;;;;;1.77;0.98;;;25.20;54.90;;;;;;4975454;28;20399;-79
2021/07/23 05:01:44;;;;;;;3.60;1.05;;;25.10;54.40;;;;;;4977806;28;20051;-79
2021/07/23 05:04:14;;;;;;;3.72;1.20;;;24.90;54.00;;;;;;4975485;28;20102;-79
2021/07/23 05:06:41;;;;;;;2.40;1.02;;;24.70;54.00;;;;;;4972970;28;20050;-78
2021/07/23 05:09:07;;;;;;;4.55;1.10;;;24.60;53.80;;;;;;4974604;28;20042;-78
2021/07/23 05:11:37;;;;;;;3.20;1.02;;;24.60;54.10;;;;;;4973667;28;20058;-78
2021/07/23 05:14:06;;;;;;;1.10;0.90;;;24.40;53.90;;;;;;4980334;28;20038;-80
2021/07/23 05:16:34;;;;;;;2.20;0.90;;;24.40;53.80;;;;;;4989882;28;20038;-78
2021/07/23 05:19:03;;;;;;;3.42;1.10;;;24.20;54.10;;;;;;4983989;28;20046;-79
2021/07/23 05:21:29;;;;;;;3.05;1.48;;;24.20;54.40;;;;;;4992446;28;20077;-79
2021/07/23 05:23:55;;;;;;;1.73;1.00;;;24.10;54.30;;;;;;4993721;28;20049;-79
2021/07/23 05:26:21;;;;;;;2.95;1.05;;;24.10;54.20;;;;;;4992682;28;20038;-80
2021/07/23 05:28:47;;;;;;;2.17;1.02;;;24.00;54.30;;;;;;4994550;28;20085;-77
2021/07/23 05:31:13;;;;;;;3.42;1.13;;;24.00;54.40;;;;;;4977068;28;20517;-78
2021/07/23 05:33:39;;;;;;;3.95;1.30;;;24.00;54.60;;;;;;4995664;28;20027;-77
2021/07/23 05:36:05;;;;;;;2.25;0.90;;;24.00;54.70;;;;;;4995478;28;20096;-77
2021/07/23 05:38:31;;;;;;;5.82;1.58;;;24.10;54.80;;;;;;4993904;28;20557;-77
2021/07/23 05:40:57;;;;;;;5.25;1.10;;;24.10;54.90;;;;;;4977122;28;20399;-76
2021/07/23 05:43:23;;;;;;;2.35;0.98;;;24.10;54.70;;;;;;4976328;28;20038;-76
2021/07/23 05:45:49;;;;;;;5.28;1.17;;;24.10;54.60;;;;;;4975904;28;20499;-76
2021/07/23 05:48:15;;;;;;;4.72;1.58;;;24.10;54.80;;;;;;4975843;28;20062;-77
2021/07/23 05:50:41;;;;;;;5.13;1.20;;;24.20;54.80;;;;;;4975948;28;20499;-76
2021/07/23 05:53:07;;;;;;;3.63;1.20;;;24.40;55.20;;;;;;4975799;28;20050;-77
2021/07/23 05:55:32;;;;;;;3.60;1.20;;;24.50;55.10;;;;;;4975796;28;20077;-76
2021/07/23 05:57:58;;;;;;;4.63;1.20;;;24.60;54.80;;;;;;4975837;28;20133;-76
2021/07/23 06:00:26;;;;;;;5.35;1.25;;;24.70;54.40;;;;;;4975815;28;20039;-76
2021/07/23 06:03:01;;;;;;;4.75;1.30;;;24.70;54.20;;;;;;4974870;28;20117;-76
2021/07/23 06:05:27;;;;;;;5.82;0.98;;;24.70;53.90;;;;;;4974365;28;20041;-76
2021/07/23 06:07:52;;;;;;;6.10;1.10;;;24.70;54.10;;;;;;4975732;28;20038;-77
2021/07/23 06:10:18;;;;;;;3.58;1.20;;;24.70;54.00;;;;;;4974439;28;20039;-85
2021/07/23 06:12:44;;;;;;;4.03;1.45;;;24.70;54.20;;;;;;4975397;28;20043;-76
2021/07/23 06:15:10;;;;;;;3.83;1.30;;;24.90;54.40;;;;;;4974271;28;20402;-82
2021/07/23 06:17:36;;;;;;;6.30;1.10;;;25.20;54.10;;;;;;4989261;28;20034;-83
2021/07/23 06:20:03;;;;;;;6.72;1.10;;;25.50;53.90;;;;;;4993428;28;20482;-78
2021/07/23 06:22:29;;;;;;;6.18;1.00;;;25.50;53.20;;;;;;4992084;28;20027;-90
2021/07/23 06:24:56;;;;;;;4.80;1.10;;;25.70;53.50;;;;;;4994616;28;20041;-84
2021/07/23 06:27:22;;;;;;;6.90;1.25;;;25.90;53.40;;;;;;5002831;28;20049;-81
2021/07/23 06:29:49;;;;;;;7.20;1.83;;;26.00;52.80;;;;;;4993599;28;20508;-84
2021/07/23 06:32:15;;;;;;;10.73;2.05;;;26.10;53.20;;;;;;4973393;28;20526;-78
2021/07/23 06:34:41;;;;;;;3.45;1.23;;;26.10;53.50;;;;;;4972397;28;20093;-78
2021/07/23 06:37:07;;;;;;;1.58;0.90;;;26.10;53.00;;;;;;4972736;28;20035;-78
2021/07/23 06:39:33;;;;;;;4.00;1.50;;;26.00;53.30;;;;;;4996864;28;20042;-84
2021/07/23 06:41:59;;;;;;;3.38;1.48;;;25.70;53.30;;;;;;5013942;28;20069;-80
2021/07/23 06:44:28;;;;;;;5.00;1.42;;;25.70;53.60;;;;;;5013921;28;20045;-81
2021/07/23 06:46:54;;;;;;;5.78;1.58;;;25.50;53.70;;;;;;5013597;28;20026;-82
2021/07/23 06:49:20;;;;;;;5.90;1.77;;;25.60;54.10;;;;;;5011280;28;20041;-81
2021/07/23 06:51:46;;;;;;;4.45;1.35;;;25.80;54.30;;;;;;5012504;28;20137;-84
2021/07/23 06:54:13;;;;;;;5.82;1.50;;;26.10;54.20;;;;;;5013713;28;20116;-80
2021/07/23 06:56:40;;;;;;;8.05;1.02;;;26.20;53.50;;;;;;5013715;28;20033;-81
2021/07/23 06:59:05;;;;;;;4.03;1.48;;;26.30;53.50;;;;;;4998155;28;20437;-88
2021/07/23 07:01:31;;;;;;;9.85;1.38;;;26.20;53.40;;;;;;5001067;28;20061;-86
2021/07/23 07:03:57;;;;;;;8.93;1.45;;;26.10;53.10;;;;;;5010609;28;20069;-86
2021/07/23 07:06:23;;;;;;;7.88;1.30;;;26.00;53.10;;;;;;5002710;28;20045;-90
2021/07/23 07:08:50;;;;;;;5.30;1.40;;;25.90;53.30;;;;;;4992272;28;20034;-85
2021/07/23 07:11:16;;;;;;;3.13;1.20;;;25.90;53.90;;;;;;4992559;28;20117;-84
2021/07/23 07:13:44;;;;;;;4.38;1.00;;;25.90;53.70;;;;;;4994380;28;20140;-88
2021/07/23 07:16:11;;;;;;;4.07;1.15;;;25.90;53.90;;;;;;4988708;28;20397;-88
2021/07/23 07:18:37;;;;;;;2.95;1.00;;;26.10;53.70;;;;;;5013711;28;20102;-90
2021/07/23 07:21:05;;;;;;;3.38;1.17;;;26.10;53.70;;;;;;5013645;28;20107;-88
2021/07/23 07:23:31;;;;;;;5.00;1.38;;;26.10;53.50;;;;;;5014152;28;20042;-90
2021/07/23 07:25:57;;;;;;;6.80;1.70;;;26.00;53.40;;;;;;5014466;28;20045;-86
2021/07/23 07:28:23;;;;;;;4.05;1.40;;;25.90;53.70;;;;;;5015057;28;20042;-88
2021/07/23 07:30:49;;;;;;;6.75;1.30;;;26.10;54.30;;;;;;5013215;28;20034;-84
2021/07/23 07:33:18;;;;;;;6.53;1.40;;;26.20;54.00;;;;;;5012220;28;20041;-88
2021/07/23 07:35:44;;;;;;;7.13;1.35;;;26.30;53.90;;;;;;5012031;28;20048;-81
2021/07/23 07:38:11;;;;;;;3.65;1.35;;;26.40;53.40;;;;;;5013002;28;20046;-88
2021/07/23 07:40:39;;;;;;;3.85;1.20;;;26.40;53.20;;;;;;5011005;28;20041;-85
2021/07/23 07:43:06;;;;;;;6.60;1.30;;;26.50;53.40;;;;;;5014429;28;20430;-84
2021/07/23 07:45:33;;;;;;;6.10;1.38;;;26.40;53.60;;;;;;5012645;28;20069;-79
2021/07/23 07:47:59;;;;;;;4.82;1.08;;;26.50;53.40;;;;;;5012413;28;20046;-82
2021/07/23 07:50:25;;;;;;;6.97;1.50;;;26.50;53.20;;;;;;5010215;28;20030;-87
2021/07/23 07:52:51;;;;;;;4.60;1.30;;;26.60;53.30;;;;;;5010236;28;20092;-83
2021/07/23 07:55:17;;;;;;;2.95;0.88;;;26.70;53.30;;;;;;5011441;28;20068;-80
2021/07/23 07:57:43;;;;;;;5.68;1.23;;;26.80;52.90;;;;;;5011454;28;20076;-81
2021/07/23 08:00:09;;;;;;;1.67;1.13;;;26.80;52.60;;;;;;5011273;28;20030;-81
2021/07/23 08:02:39;;;;;;;7.40;1.10;;;26.70;53.00;;;;;;5010002;28;20057;-83
2021/07/23 08:05:06;;;;;;;6.22;1.40;;;26.70;53.20;;;;;;5011729;28;20041;-82
2021/07/23 08:07:33;;;;;;;3.88;0.90;;;26.60;52.20;;;;;;5009770;28;20037;-83
2021/07/23 08:10:02;;;;;;;4.40;1.30;;;26.50;52.60;;;;;;5009858;28;20037;-81
2021/07/23 08:12:32;;;;;;;5.53;1.33;;;26.40;52.80;;;;;;5011125;28;20107;-79
2021/07/23 08:14:58;;;;;;;6.20;1.35;;;26.40;53.00;;;;;;5011020;28;20073;-78
2021/07/23 08:17:26;;;;;;;4.43;1.25;;;26.30;52.90;;;;;;5010993;28;20038;-80
2021/07/23 08:19:51;;;;;;;4.45;1.20;;;26.20;53.20;;;;;;5010587;28;20107;-77
2021/07/23 08:22:17;;;;;;;4.00;1.00;;;26.30;53.10;;;;;;5010055;28;20059;-78
2021/07/23 08:24:44;;;;;;;3.97;1.15;;;26.20;52.90;;;;;;4998049;28;20034;-78
2021/07/23 08:27:10;;;;;;;3.00;1.35;;;26.10;53.00;;;;;;4994228;28;20077;-79
2021/07/23 08:29:36;;;;;;;3.03;1.08;;;26.10;53.30;;;;;;4995810;28;20124;-77
2021/07/23 08:32:09;;;;;;;9.52;1.40;;;26.10;53.90;;;;;;4994435;28;20116;-78
2021/07/23 08:34:35;;;;;;;8.75;1.30;;;25.80;54.80;;;;;;4995504;28;20387;-82
2021/07/23 08:37:01;;;;;;;6.07;1.33;;;25.70;55.70;;;;;;4995189;28;20069;-79
2021/07/23 08:39:27;;;;;;;4.35;1.42;;;25.60;56.40;;;;;;4995030;28;20076;-80
2021/07/23 08:41:57;;;;;;;2.65;1.20;;;25.60;56.50;;;;;;4993953;28;20526;-81
2021/07/23 08:44:25;;;;;;;5.75;1.48;;;25.60;56.80;;;;;;4994403;28;20038;-80
2021/07/23 08:46:52;;;;;;;5.65;1.80;;;25.70;56.50;;;;;;4961685;28;20050;-80
2021/07/23 08:49:19;;;;;;;4.38;1.60;;;25.70;56.30;;;;;;5006754;28;20041;-79
2021/07/23 08:51:50;;;;;;;3.53;1.35;;;25.70;56.50;;;;;;5014760;28;20069;-77
2021/07/23 08:54:16;;;;;;;2.72;1.33;;;25.80;56.50;;;;;;5014820;28;20038;-79
2021/07/23 08:56:53;;;;;;;2.88;1.38;;;25.80;56.40;;;;;;5014049;28;20041;-81
2021/07/23 08:59:19;;;;;;;3.78;1.05;;;25.90;56.60;;;;;;5013932;28;20034;-80
2021/07/23 09:02:01;;;;;;;3.15;1.42;;;25.90;56.50;;;;;;5013000;28;20064;-81
2021/07/23 09:04:30;;;;;;;5.63;1.33;;;25.90;56.40;;;;;;5013020;28;20068;-79
2021/07/23 09:07:14;;;;;;;4.13;1.17;;;25.90;56.50;;;;;;5014100;28;20040;-79
2021/07/23 09:09:41;;;;;;;4.03;1.60;;;26.00;56.70;;;;;;5013316;28;20030;-79
2021/07/23 09:12:08;;;;;;;4.53;1.50;;;26.00;55.90;;;;;;4996392;28;20457;-79
2021/07/23 09:14:34;;;;;;;6.15;1.67;;;26.00;55.70;;;;;;4993473;28;20054;-87
2021/07/23 09:17:00;;;;;;;2.72;1.50;;;26.00;55.80;;;;;;5013093;28;20041;-81
2021/07/23 09:19:26;;;;;;;2.13;1.30;;;26.00;55.60;;;;;;5013685;28;20042;-77
2021/07/23 09:21:57;;;;;;;4.22;1.52;;;26.00;55.50;;;;;;5014555;28;20072;-80
2021/07/23 09:24:23;;;;;;;4.07;1.70;;;26.00;55.50;;;;;;5014557;28;20029;-77
2021/07/23 09:26:50;;;;;;;4.70;1.48;;;25.90;55.30;;;;;;5014119;28;20486;-77
2021/07/23 09:29:16;;;;;;;7.65;1.50;;;26.00;55.30;;;;;;5015287;28;20406;-82
2021/07/23 09:32:08;;;;;;;5.28;1.83;;;26.00;55.20;;;;;;5015571;28;20029;-81
2021/07/23 09:34:34;;;;;;;5.93;1.73;;;26.00;55.40;;;;;;5008515;28;20065;-81
2021/07/23 09:37:12;;;;;;;6.30;1.85;;;26.00;55.20;;;;;;5015214;28;20048;-80
2021/07/23 09:39:38;;;;;;;3.92;1.55;;;26.00;55.50;;;;;;5013375;28;20461;-80
2021/07/23 09:42:04;;;;;;;4.15;1.80;;;26.10;55.20;;;;;;5015147;28;20026;-79
2021/07/23 09:44:30;;;;;;;3.63;2.55;;;26.10;55.80;;;;;;5014303;28;20088;-79
2021/07/23 09:46:56;;;;;;;5.22;1.70;;;26.10;55.60;;;;;;5006800;28;20129;-78
2021/07/23 09:49:26;;;;;;;4.93;2.33;;;26.00;55.20;;;;;;4995915;28;20034;-78
2021/07/23 09:51:55;;;;;;;4.28;2.20;;;26.00;54.80;;;;;;4995573;28;20490;-78
2021/07/23 09:54:21;;;;;;;4.68;2.08;;;26.00;55.20;;;;;;4995390;28;20042;-80
2021/07/23 09:56:49;;;;;;;5.75;2.05;;;26.00;54.70;;;;;;4994831;28;20034;-80
2021/07/23 10:00:01;;;;;;;7.43;1.92;;;26.00;55.20;;;;;;4995301;28;20073;-80
2021/07/23 10:02:32;;;;;;;8.25;2.03;;;26.00;54.90;;;;;;4995195;28;20453;-79
2021/07/23 10:05:05;;;;;;;3.95;1.88;;;26.00;54.50;;;;;;4995255;28;20402;-79
2021/07/23 10:07:40;;;;;;;2.47;1.80;;;26.10;54.80;;;;;;4993806;28;20530;-80
2021/07/23 10:10:11;;;;;;;4.82;1.90;;;26.10;54.90;;;;;;4994308;28;20045;-78
2021/07/23 10:12:40;;;;;;;6.80;1.70;;;26.10;54.20;;;;;;4995396;28;20434;-79
2021/07/23 10:15:06;;;;;;;2.47;1.70;;;26.00;54.20;;;;;;4993892;28;20041;-78
2021/07/23 10:17:35;;;;;;;5.28;2.10;;;26.00;54.10;;;;;;4993514;28;20049;-79
2021/07/23 10:20:03;;;;;;;3.17;1.92;;;25.90;53.60;;;;;;4993950;28;20450;-78
2021/07/23 10:22:29;;;;;;;3.05;1.50;;;26.00;53.50;;;;;;4994533;28;20046;-78
2021/07/23 10:24:56;;;;;;;5.88;1.55;;;26.10;53.20;;;;;;4993465;28;20042;-78
2021/07/23 10:27:25;;;;;;;5.80;1.95;;;26.00;52.60;;;;;;4993679;28;20035;-77
2021/07/23 10:29:52;;;;;;;4.05;1.83;;;25.90;51.70;;;;;;4994645;28;20125;-79
2021/07/23 10:32:25;;;;;;;5.30;1.60;;;25.90;51.50;;;;;;4994710;28;20045;-82
2021/07/23 10:34:58;;;;;;;5.15;1.65;;;26.00;51.50;;;;;;4994348;28;20037;-76
2021/07/23 10:37:30;;;;;;;3.92;1.70;;;26.00;50.80;;;;;;4993514;28;20068;-77
2021/07/23 10:40:08;;;;;;;26.55;3.25;;;26.00;50.80;;;;;;4994389;28;20046;-78
2021/07/23 10:42:39;;;;;;;14.90;2.42;;;25.90;51.50;;;;;;4992896;28;20038;-79
2021/07/23 10:45:08;;;;;;;10.00;2.08;;;25.60;51.40;;;;;;4994288;28;20054;-78
2021/07/23 10:47:38;;;;;;;6.45;1.60;;;25.50;52.70;;;;;;4994091;28;20395;-77
2021/07/23 10:50:06;;;;;;;4.75;1.90;;;25.40;53.40;;;;;;4994459;28;20034;-79
2021/07/23 10:52:39;;;;;;;4.05;1.63;;;25.30;54.10;;;;;;4993005;28;20057;-77
2021/07/23 10:55:22;;;;;;;5.57;1.60;;;25.30;54.90;;;;;;4994524;28;20084;-77
2021/07/23 10:58:20;;;;;;;2.40;1.20;;;25.20;56.00;;;;;;4994225;28;20120;-81
2021/07/23 11:00:47;;;;;;;2.13;1.70;;;25.10;57.30;;;;;;4986224;28;20141;-82
2021/07/23 11:03:35;;;;;;;2.92;1.73;;;25.00;57.60;;;;;;4994622;28;20058;-86
2021/07/23 11:06:02;;;;;;;4.38;1.60;;;24.90;58.70;;;;;;4994170;28;20043;-77
2021/07/23 11:08:28;;;;;;;5.00;1.58;;;24.90;58.70;;;;;;4994292;28;20041;-76
2021/07/23 11:10:55;;;;;;;7.20;1.80;;;24.80;59.10;;;;;;4993989;28;20049;-80
2021/07/23 11:13:23;;;;;;;2.60;1.88;;;24.70;59.40;;;;;;4992820;28;20026;-79
2021/07/23 11:16:17;;;;;;;4.35;2.13;;;24.60;59.70;;;;;;4993811;28;20451;-79
2021/07/23 11:18:50;;;;;;;4.13;2.15;;;24.70;60.00;;;;;;4993818;28;20048;-80
2021/07/23 11:21:16;;;;;;;2.83;2.03;;;24.60;59.90;;;;;;4994223;28;20440;-80
2021/07/23 11:23:43;;;;;;;4.53;2.60;;;24.60;60.00;;;;;;4994013;28;20034;-79
2021/07/23 11:26:09;;;;;;;3.45;2.20;;;24.50;60.60;;;;;;4993823;28;20101;-78
2021/07/23 11:28:53;;;;;;;2.90;2.13;;;24.40;61.10;;;;;;4992437;28;20038;-79
2021/07/23 11:31:33;;;;;;;3.03;2.28;;;24.40;60.90;;;;;;4993470;28;20038;-76
2021/07/23 11:34:20;;;;;;;3.90;2.60;;;24.50;60.20;;;;;;4992849;28;20081;-76
2021/07/23 11:36:46;;;;;;;4.47;2.53;;;24.60;60.90;;;;;;4993368;28;20100;-78
2021/07/23 11:39:12;;;;;;;4.15;2.72;;;24.60;60.80;;;;;;4993530;28;20042;-79
2021/07/23 11:42:05;;;;;;;4.18;2.47;;;24.50;61.10;;;;;;4993512;28;20045;-78
2021/07/23 11:44:31;;;;;;;4.03;2.90;;;24.50;61.00;;;;;;4993422;28;20518;-79
2021/07/23 11:46:58;;;;;;;2.97;2.67;;;24.60;60.70;;;;;;4993542;28;20034;-77
2021/07/23 11:49:31;;;;;;;3.20;2.90;;;24.60;60.30;;;;;;4993564;28;20069;-76
2021/07/23 11:51:57;;;;;;;3.67;2.97;;;24.70;60.40;;;;;;4993489;28;20050;-78
2021/07/23 11:54:24;;;;;;;3.83;3.17;;;24.70;60.00;;;;;;4993283;28;20118;-78
2021/07/23 11:56:51;;;;;;;6.18;3.42;;;24.70;59.70;;;;;;4992015;28;20625;-78
2021/07/23 11:59:18;;;;;;;5.65;3.80;;;24.70;59.50;;;;;;4975954;28;20034;-78
2021/07/23 12:01:43;;;;;;;3.78;3.30;;;24.70;58.90;;;;;;4993088;28;20058;-78
2021/07/23 12:04:09;;;;;;;4.43;3.20;;;24.80;59.00;;;;;;4994111;28;20046;-77
2021/07/23 12:06:39;;;;;;;5.28;3.67;;;24.80;58.50;;;;;;4993412;28;20049;-77
2021/07/23 12:09:09;;;;;;;3.95;3.20;;;24.80;58.50;;;;;;4992892;28;20060;-78
2021/07/23 12:11:35;;;;;;;7.18;3.35;;;24.90;57.90;;;;;;4993295;28;20097;-76
2021/07/23 12:14:09;;;;;;;5.35;3.47;;;24.90;57.60;;;;;;4993673;28;20039;-84
2021/07/23 12:16:36;;;;;;;4.38;3.40;;;24.90;57.00;;;;;;4993004;28;20586;-80
2021/07/23 12:19:08;;;;;;;5.00;3.45;;;24.90;56.90;;;;;;4989214;28;20133;-81
2021/07/23 12:21:35;;;;;;;4.07;3.30;;;24.90;56.90;;;;;;4991312;28;20380;-80
2021/07/23 12:24:06;;;;;;;5.38;2.90;;;25.00;56.50;;;;;;4991588;28;20046;-79
2021/07/23 12:26:36;;;;;;;5.65;3.60;;;25.00;56.60;;;;;;4992847;28;20038;-78
2021/07/23 12:29:05;;;;;;;5.13;3.45;;;25.10;56.30;;;;;;4993029;28;20038;-77
2021/07/23 12:31:32;;;;;;;3.85;3.22;;;25.10;55.90;;;;;;4992879;28;20034;-78
2021/07/23 12:34:18;;;;;;;6.65;3.38;;;25.10;56.40;;;;;;4992355;28;20046;-79
2021/07/23 12:36:52;;;;;;;5.43;3.78;;;25.00;56.20;;;;;;4992875;28;20030;-77
2021/07/23 12:39:22;;;;;;;5.63;3.67;;;25.10;56.40;;;;;;4992040;28;20050;-79
2021/07/23 12:41:49;;;;;;;3.80;3.50;;;25.10;56.60;;;;;;4992624;28;20045;-78
2021/07/23 12:44:16;;;;;;;5.10;3.70;;;25.00;56.50;;;;;;4992622;28;20061;-80
2021/07/23 12:46:47;;;;;;;4.82;3.45;;;24.90;56.80;;;;;;4992424;28;20514;-79
2021/07/23 12:49:19;;;;;;;4.60;3.50;;;24.90;57.10;;;;;;4991666;28;20580;-78
2021/07/23 12:51:47;;;;;;;4.63;3.10;;;24.90;57.00;;;;;;4992873;28;20050;-79
2021/07/23 12:54:14;;;;;;;4.50;4.00;;;24.90;57.00;;;;;;4992694;28;20034;-81
2021/07/23 12:56:43;;;;;;;3.83;3.13;;;24.90;57.30;;;;;;4975555;28;20046;-86
2021/07/23 12:59:27;;;;;;;7.05;3.60;;;24.90;57.50;;;;;;4992443;28;20042;-83